SKPESKMR

Guest
Details From SKPE - MATECANA
To SKMR - LOS GARZONES
Flight Number -
Tags generated
Created
Modified
Stats Distance 242 nm / 448 km
Max Altitude 32,100 ft / 9,784 m
Waypoints 7
Social Downloads 0
Likes 0
Share VATSIM

Download

Looking for another format? Having issues loading an existing format? Contact us
Advertisement - Login to hide

Notes

Basic altitude profile: - Ascent Rate: 2500ft/min - Ascent Speed: 250kts - Cruise Altitude: 320ft - Cruise Speed: 420kts - Descent Rate: 1500ft/min - Descent Speed: 250kts Options: - Use NATs: yes - Use PACOTS: yes - Use low airways: yes - Use high airways: yes

Route

SKPE NENER W37 LUCIA SKMR

ID Type Via Altitude Latitude Longitude Leg Dist Tot Dist Heading (true) Name
O SKPE APT - 0 ft / 0 m 4.81267˚ -75.73952˚ - 0 nm - MATECANA
NENER FIX - 32,100 ft / 9,784 m 6.33028˚ -75.92333˚ 91 nm 91 nm 353° / 353° -
PEQUE FIX W37 (AWY-LO) 24,500 ft / 7,468 m 6.73667˚ -75.95306˚ 24 nm 116 nm 356° / 356° -
LAURA FIX W37 (AWY-LO) 17,100 ft / 5,212 m 7.49556˚ -75.90389˚ 45 nm 161 nm 4° / 4° -
KALIR FIX W37 (AWY-LO) 11,500 ft / 3,505 m 8.00833˚ -75.87056˚ 30 nm 192 nm 4° / 4° -
LUCIA FIX W37 (AWY-LO) 5,500 ft / 1,676 m 8.41444˚ -75.84389˚ 24 nm 217 nm 4° / 4° -
O SKMR APT - 0 ft / 0 m 8.82374˚ -75.82583˚ 24 nm 241 nm 2° / 2° LOS GARZONES

Altitude Profile

Advertisement - Login to hide

Weather


0- 5 10 15 20 25 30 35+ Temperature / ° C

Clouds and Precipitation
Forecast for 2017-12-11 00:00 UTC. Updated an hour ago

Ground ~20,000 ft ~40,000 ft Winds

SKPE

Details ICAO SKPE (PEI)
Name MATECANA
Region Colombia
Timezone America/Bogota (UTC-5.0)
Stats Elevation 4,416 ft / 1,346 m (AMSL)
Location 4.812673° -75.739518°
Runways 1
Magnetic Variation 6.214° W

METAR

SKPE 110000Z 14004KT 9999 VCSH FEW015TCU SCT080 22/19 A3006 RMK TCU VCSH/NE/E

Decode

TAF

Not found

Departure Runways

ID Width Length Bearing (true) Bearing (mag) Surface Threshold Offset Overrun Length
08 148 ft / 45 m 6,628 ft / 2,020 m 72.24° 78.45° Asphalt 0 ft / 0 m 0 ft / 0 m
26 148 ft / 45 m 6,628 ft / 2,020 m 252.24° 258.45° Asphalt 0 ft / 0 m 0 ft / 0 m

SKMR

Details ICAO SKMR (MTR)
Name LOS GARZONES
Region Colombia
Timezone America/Bogota (UTC-5.0)
Stats Elevation 36 ft / 11 m (AMSL)
Location 8.823745° -75.825832°
Runways 1
Magnetic Variation 6.765° W

METAR

SKMR 110000Z VRB02KT 9999 FEW020 SCT200 25/24 A2983

Decode

TAF

Not found

Destination Runways

ID Width Length Bearing (true) Bearing (mag) Surface Threshold Offset Overrun Length
14 115 ft / 35 m 6,302 ft / 1,921 m 137.94° 144.71° Asphalt 0 ft / 0 m 0 ft / 0 m
32 115 ft / 35 m 6,302 ft / 1,921 m 317.94° 324.71° Asphalt 0 ft / 0 m 0 ft / 0 m